PROFILE

 METAR AND TAF INFORMATION
ADDS - METARS form results

(0526 UTC 13 July 2020)
http://aviationweather.gov/metar/data/
 
GQNO 130430Z 34006KT 8000 FEW013 26/24 Q1013 NOSIG

 AIRPORT MAP

 RUNWAY INFORMATION

 AIRPORT FREQUENCIES

 AIRPORT NEAR NAVIGATION AIDS